createdAt,value
2019-03-04T00:01:02.289Z,87.70
2019-03-04T00:02:03.312Z,87.70
2019-03-04T00:03:04.349Z,87.70
2019-03-04T00:04:05.437Z,88.00
2019-03-04T00:05:06.558Z,88.10
2019-03-04T00:06:07.661Z,87.90
2019-03-04T00:07:10.586Z,87.90
2019-03-04T00:08:11.724Z,88.00
2019-03-04T00:09:12.755Z,88.00
2019-03-04T00:10:14.082Z,87.70
2019-03-04T00:11:15.110Z,87.90
2019-03-04T00:12:16.129Z,88.10
2019-03-04T00:13:17.169Z,87.80
2019-03-04T00:14:18.214Z,87.60
2019-03-04T00:15:19.243Z,87.70
2019-03-04T00:16:20.266Z,87.40
2019-03-04T00:17:21.298Z,87.20
2019-03-04T00:18:22.324Z,87.20
2019-03-04T00:19:23.333Z,87.50
2019-03-04T00:20:24.878Z,87.80
2019-03-04T00:21:25.900Z,87.60
2019-03-04T00:22:26.926Z,87.30
2019-03-04T00:23:27.969Z,87.40
2019-03-04T00:24:28.996Z,87.10
2019-03-04T00:25:30.017Z,87.00
2019-03-04T00:26:31.036Z,87.20
2019-03-04T00:27:32.059Z,86.70
2019-03-04T00:28:33.095Z,86.50
2019-03-04T00:29:34.110Z,86.60
2019-03-04T00:30:35.141Z,86.50
2019-03-04T00:31:36.161Z,86.50
2019-03-04T00:32:37.178Z,87.20
2019-03-04T00:33:38.210Z,86.40
2019-03-04T00:34:39.237Z,86.60
2019-03-04T00:35:40.257Z,86.60
2019-03-04T00:36:41.276Z,86.20
2019-03-04T00:37:42.293Z,86.20
2019-03-04T00:38:43.331Z,85.80
2019-03-04T00:39:44.342Z,85.10
2019-03-04T00:40:45.357Z,85.50
2019-03-04T00:41:46.382Z,85.50
2019-03-04T00:42:47.410Z,85.60
2019-03-04T00:43:48.501Z,85.40
2019-03-04T00:44:49.525Z,85.60
2019-03-04T00:45:50.541Z,86.30
2019-03-04T00:46:51.568Z,85.60
2019-03-04T00:47:52.586Z,85.50
2019-03-04T00:48:53.614Z,85.40
2019-03-04T00:49:56.932Z,85.60
2019-03-04T00:50:57.606Z,85.70
2019-03-04T00:51:58.620Z,85.60
2019-03-04T00:52:59.639Z,85.50
2019-03-04T00:54:00.673Z,85.80
2019-03-04T00:55:01.702Z,86.00
2019-03-04T00:56:02.821Z,85.90
2019-03-04T00:57:03.842Z,85.90
2019-03-04T00:58:04.950Z,86.00
2019-03-04T00:59:06.065Z,85.90
2019-03-04T01:00:13.837Z,85.40
2019-03-04T01:01:14.855Z,85.10
2019-03-04T01:02:15.934Z,84.90
2019-03-04T01:03:16.966Z,84.90
2019-03-04T01:04:17.997Z,84.60
2019-03-04T01:05:19.174Z,84.40
2019-03-04T01:06:20.194Z,84.00
2019-03-04T01:07:21.238Z,84.20
2019-03-04T01:08:22.259Z,84.20
2019-03-04T01:09:23.289Z,84.30
2019-03-04T01:10:24.317Z,84.60
2019-03-04T01:11:25.338Z,84.70
2019-03-04T01:12:26.353Z,84.80
2019-03-04T01:13:27.369Z,84.90
2019-03-04T01:14:28.393Z,84.80
2019-03-04T01:15:29.473Z,84.70
2019-03-04T01:16:30.545Z,84.90
2019-03-04T01:17:31.561Z,84.90
2019-03-04T01:18:32.574Z,84.90
2019-03-04T01:19:33.609Z,85.00
2019-03-04T01:20:34.641Z,84.90
2019-03-04T01:21:35.764Z,84.90
2019-03-04T01:22:36.781Z,84.90
2019-03-04T01:23:37.906Z,84.60
2019-03-04T01:24:38.933Z,84.80
2019-03-04T01:25:39.952Z,85.00
2019-03-04T01:26:41.397Z,84.90
2019-03-04T01:27:42.405Z,84.70
2019-03-04T01:28:43.426Z,84.30
2019-03-04T01:29:44.446Z,84.30
2019-03-04T01:30:45.465Z,84.40
2019-03-04T01:31:46.486Z,84.30
2019-03-04T01:32:47.960Z,84.60
2019-03-04T01:33:49.018Z,84.10
2019-03-04T01:34:50.056Z,84.10
2019-03-04T01:35:51.086Z,84.20
2019-03-04T01:36:52.444Z,84.20
2019-03-04T01:37:53.461Z,84.10
2019-03-04T01:38:56.461Z,84.40
2019-03-04T01:39:57.589Z,84.10
2019-03-04T01:40:58.630Z,83.90
2019-03-04T01:41:59.637Z,83.80
2019-03-04T01:43:00.682Z,83.60
2019-03-04T01:44:01.707Z,83.20
2019-03-04T01:45:03.942Z,83.60
2019-03-04T01:46:07.709Z,83.50
2019-03-04T01:47:08.731Z,83.40
2019-03-04T01:48:09.744Z,83.30
2019-03-04T01:49:10.856Z,83.20
2019-03-04T01:50:12.994Z,83.50
2019-03-04T01:51:14.311Z,83.50
2019-03-04T01:52:15.329Z,83.70
2019-03-04T01:53:16.673Z,83.30
2019-03-04T01:54:17.694Z,83.00
2019-03-04T01:55:19.499Z,82.90
2019-03-04T01:56:20.515Z,82.70
2019-03-04T01:57:21.570Z,82.70
2019-03-04T01:58:22.585Z,82.70
2019-03-04T01:59:23.599Z,82.50
2019-03-04T02:00:24.626Z,82.10
2019-03-04T02:01:25.649Z,82.40
2019-03-04T02:02:26.664Z,82.20
2019-03-04T02:03:28.041Z,82.30
2019-03-04T02:04:29.063Z,82.50
2019-03-04T02:05:30.085Z,82.30
2019-03-04T02:06:31.109Z,83.10
2019-03-04T02:07:32.129Z,82.50
2019-03-04T02:08:33.153Z,82.20
2019-03-04T02:09:34.173Z,82.00
2019-03-04T02:10:37.401Z,82.00
2019-03-04T02:11:38.418Z,82.00
2019-03-04T02:12:39.442Z,82.30
2019-03-04T02:13:40.871Z,82.20
2019-03-04T02:14:41.890Z,82.20
2019-03-04T02:15:42.925Z,82.30
2019-03-04T02:16:43.950Z,82.30
2019-03-04T02:17:44.976Z,82.30
2019-03-04T02:18:46.079Z,82.20
2019-03-04T02:19:47.101Z,82.20
2019-03-04T02:20:48.126Z,81.90
2019-03-04T02:21:49.249Z,81.80
2019-03-04T02:22:50.279Z,82.00
2019-03-04T02:23:51.726Z,82.30
2019-03-04T02:24:52.741Z,82.00
2019-03-04T02:26:04.605Z,82.20
2019-03-04T02:27:06.921Z,81.70
2019-03-04T02:28:07.937Z,81.50
2019-03-04T02:29:08.962Z,81.50
2019-03-04T02:30:17.829Z,81.40
2019-03-04T02:31:18.961Z,81.40
2019-03-04T02:32:20.075Z,81.50
2019-03-04T02:33:21.173Z,81.50
2019-03-04T02:34:22.212Z,81.30
2019-03-04T02:35:23.272Z,81.30
2019-03-04T02:36:24.373Z,81.10
2019-03-04T02:37:25.414Z,81.10
2019-03-04T02:38:26.451Z,81.00
2019-03-04T02:39:27.670Z,80.80
2019-03-04T02:40:28.902Z,81.00
2019-03-04T02:41:29.919Z,81.10
2019-03-04T02:42:30.937Z,81.10
2019-03-04T02:43:32.175Z,80.90
2019-03-04T02:44:33.305Z,81.10
2019-03-04T02:45:34.446Z,80.90
2019-03-04T02:46:35.462Z,81.10
2019-03-04T02:47:36.506Z,81.00
2019-03-04T02:48:37.519Z,81.20
2019-03-04T02:49:38.541Z,81.40
2019-03-04T02:50:39.578Z,80.90
2019-03-04T02:51:40.849Z,81.30
2019-03-04T02:52:41.939Z,81.30
2019-03-04T02:53:43.074Z,81.10
2019-03-04T02:54:44.081Z,81.80
2019-03-04T02:55:45.123Z,81.30
2019-03-04T02:56:46.150Z,80.90
2019-03-04T02:57:47.173Z,80.80
2019-03-04T02:58:48.182Z,80.80
2019-03-04T02:59:49.404Z,81.30
2019-03-04T03:00:50.432Z,81.00
2019-03-04T03:01:51.549Z,80.60
2019-03-04T03:02:52.915Z,80.70
2019-03-04T03:03:53.925Z,80.90
2019-03-04T03:04:55.152Z,80.80
2019-03-04T03:05:56.184Z,80.70
2019-03-04T03:06:57.298Z,80.80
2019-03-04T03:07:58.346Z,81.00
2019-03-04T03:08:59.361Z,80.60
2019-03-04T03:10:00.418Z,80.70
2019-03-04T03:11:01.519Z,80.30
2019-03-04T03:12:02.936Z,80.20
2019-03-04T03:13:03.953Z,80.60
2019-03-04T03:14:06.875Z,80.40
2019-03-04T03:15:09.196Z,80.50
2019-03-04T03:16:11.032Z,80.10
2019-03-04T03:17:12.180Z,80.10
2019-03-04T03:18:13.222Z,80.50
2019-03-04T03:19:14.324Z,80.60
2019-03-04T03:20:15.457Z,80.60
2019-03-04T03:21:16.480Z,80.50
2019-03-04T03:22:17.605Z,80.40
2019-03-04T03:23:19.024Z,79.90
2019-03-04T03:24:20.152Z,80.20
2019-03-04T03:25:21.259Z,80.30
2019-03-04T03:26:22.567Z,80.30
2019-03-04T03:27:23.731Z,80.30
2019-03-04T03:28:24.745Z,80.40
2019-03-04T03:29:25.769Z,80.40
2019-03-04T03:30:27.199Z,80.70
2019-03-04T03:31:28.322Z,80.80
2019-03-04T03:32:29.343Z,80.70
2019-03-04T03:33:30.671Z,80.70
2019-03-04T03:34:31.747Z,80.80
2019-03-04T03:35:32.854Z,80.60
2019-03-04T03:36:33.886Z,80.70
2019-03-04T03:37:36.810Z,80.50
2019-03-04T03:38:37.941Z,80.60
2019-03-04T03:39:39.044Z,80.80
2019-03-04T03:40:40.065Z,80.70
2019-03-04T03:41:41.088Z,80.80
2019-03-04T03:42:42.168Z,80.70
2019-03-04T03:43:43.269Z,80.60
2019-03-04T03:44:44.282Z,80.60
2019-03-04T03:45:45.558Z,80.50
2019-03-04T03:46:46.578Z,80.70
2019-03-04T03:47:47.704Z,80.60
2019-03-04T03:48:49.842Z,81.10
2019-03-04T03:49:50.863Z,81.20
2019-03-04T03:50:53.300Z,81.30
2019-03-04T03:51:54.425Z,81.30
2019-03-04T03:52:55.458Z,81.40
2019-03-04T03:53:56.527Z,81.40
2019-03-04T03:54:58.711Z,81.50
2019-03-04T03:55:59.739Z,81.40
2019-03-04T03:57:00.762Z,81.50
2019-03-04T03:58:01.785Z,81.30
2019-03-04T03:59:02.905Z,81.30
2019-03-04T04:00:05.822Z,81.40
2019-03-04T04:01:06.855Z,81.40
2019-03-04T04:02:07.871Z,80.90
2019-03-04T04:03:08.894Z,81.00
2019-03-04T04:04:11.623Z,81.00
2019-03-04T04:05:14.543Z,80.90
2019-03-04T04:06:15.574Z,81.00
2019-03-04T04:07:17.425Z,81.10
2019-03-04T04:08:19.315Z,81.00
2019-03-04T04:09:20.334Z,80.90
2019-03-04T04:10:21.549Z,80.60
2019-03-04T04:11:22.474Z,80.70
2019-03-04T04:12:23.390Z,81.20
2019-03-04T04:13:24.305Z,81.00
2019-03-04T04:14:29.338Z,80.80
2019-03-04T04:15:30.515Z,80.90
2019-03-04T04:16:31.651Z,80.70
2019-03-04T04:17:32.584Z,80.90
2019-03-04T04:18:33.590Z,80.80
2019-03-04T04:19:36.411Z,80.80
2019-03-04T04:20:37.331Z,80.80
2019-03-04T04:21:38.277Z,81.50
2019-03-04T04:22:39.281Z,80.70
2019-03-04T04:23:40.503Z,80.60
2019-03-04T04:24:41.426Z,80.20
2019-03-04T04:25:42.341Z,79.80
2019-03-04T04:26:43.378Z,79.80
2019-03-04T04:27:46.298Z,80.20
2019-03-04T04:28:47.823Z,80.50
2019-03-04T04:29:48.738Z,80.50
2019-03-04T04:30:51.666Z,80.70
2019-03-04T04:31:52.586Z,80.60
2019-03-04T04:32:53.503Z,80.60
2019-03-04T04:33:54.422Z,80.70
2019-03-04T04:34:55.337Z,80.70
2019-03-04T04:35:56.266Z,80.70
2019-03-04T04:36:57.193Z,80.20
2019-03-04T04:37:58.117Z,80.10
2019-03-04T04:39:01.446Z,80.10
2019-03-04T04:40:02.775Z,79.80
2019-03-04T04:41:03.681Z,79.80
2019-03-04T04:42:06.613Z,79.90
2019-03-04T04:43:07.525Z,79.80
2019-03-04T04:44:08.439Z,79.90
2019-03-04T04:45:11.861Z,79.30
2019-03-04T04:46:12.772Z,79.20
2019-03-04T04:47:13.709Z,79.20
2019-03-04T04:48:14.625Z,79.50
2019-03-04T04:49:15.545Z,79.80
2019-03-04T04:50:20.806Z,79.40
2019-03-04T04:51:21.727Z,79.30
2019-03-04T04:52:23.367Z,78.80
2019-03-04T04:53:26.469Z,79.10
2019-03-04T04:54:27.389Z,79.00
2019-03-04T04:55:28.352Z,78.80
2019-03-04T04:56:29.333Z,78.20
2019-03-04T04:57:30.253Z,77.90
2019-03-04T04:58:31.225Z,78.10
2019-03-04T04:59:32.160Z,77.70
2019-03-04T05:00:33.077Z,77.90
2019-03-04T05:01:36.081Z,77.60
2019-03-04T05:02:37.017Z,77.00
2019-03-04T05:03:37.934Z,77.20
2019-03-04T05:04:38.851Z,77.00
2019-03-04T05:05:39.772Z,76.60
2019-03-04T05:06:40.690Z,76.40
2019-03-04T05:07:41.721Z,76.30
2019-03-04T05:08:42.717Z,76.70
2019-03-04T05:09:45.631Z,76.60
2019-03-04T05:10:46.543Z,76.70
2019-03-04T05:11:47.478Z,76.80
2019-03-04T05:12:50.351Z,76.20
2019-03-04T05:13:51.398Z,76.70
2019-03-04T05:14:52.433Z,76.50
2019-03-04T05:15:53.477Z,76.20
2019-03-04T05:16:54.515Z,76.30
2019-03-04T05:17:55.616Z,76.20
2019-03-04T05:18:56.552Z,75.80
2019-03-04T05:19:57.473Z,75.90
2019-03-04T05:21:00.301Z,75.90
2019-03-04T05:22:01.218Z,76.10
2019-03-04T05:23:02.182Z,75.70
2019-03-04T05:24:03.100Z,75.40
2019-03-04T05:25:04.116Z,75.20
2019-03-04T05:26:05.030Z,75.60
2019-03-04T05:27:05.957Z,76.10
2019-03-04T05:28:06.883Z,75.80
2019-03-04T05:29:07.815Z,75.40
2019-03-04T05:30:12.642Z,75.10
2019-03-04T05:31:13.655Z,75.10
2019-03-04T05:32:14.569Z,74.20
2019-03-04T05:33:15.493Z,73.80
2019-03-04T05:34:16.525Z,73.70
2019-03-04T05:35:19.438Z,73.80
2019-03-04T05:36:20.360Z,73.80
2019-03-04T05:37:21.290Z,73.40
2019-03-04T05:38:22.221Z,72.80
2019-03-04T05:39:23.237Z,72.80
2019-03-04T05:40:24.162Z,72.90
2019-03-04T05:41:25.086Z,73.00
2019-03-04T05:42:26.084Z,73.10
2019-03-04T05:43:28.985Z,73.50
2019-03-04T05:44:29.900Z,73.50
2019-03-04T05:45:32.831Z,73.00
2019-03-04T05:46:33.845Z,73.10
2019-03-04T05:47:36.687Z,73.20
2019-03-04T05:48:37.713Z,73.70
2019-03-04T05:49:40.637Z,73.70
2019-03-04T05:50:41.660Z,74.10
2019-03-04T05:51:44.581Z,74.40
2019-03-04T05:52:46.013Z,74.40
2019-03-04T05:53:47.042Z,73.40
2019-03-04T05:54:48.073Z,73.70
2019-03-04T05:55:49.101Z,73.30
2019-03-04T05:56:50.124Z,73.60
2019-03-04T05:57:53.063Z,72.80
2019-03-04T05:58:54.202Z,72.60
2019-03-04T05:59:55.342Z,72.00
2019-03-04T06:01:16.307Z,72.00
2019-03-04T06:02:17.446Z,71.90
2019-03-04T06:03:20.397Z,72.00
2019-03-04T06:04:21.544Z,71.40
2019-03-04T06:05:22.686Z,71.60
2019-03-04T06:06:42.464Z,71.00
2019-03-04T06:07:51.305Z,71.10
2019-03-04T06:08:52.449Z,70.60
2019-03-04T06:09:53.589Z,70.80
2019-03-04T06:10:54.729Z,70.60
2019-03-04T06:11:56.156Z,71.60
2019-03-04T06:12:58.902Z,70.30
2019-03-04T06:14:00.149Z,70.70
2019-03-04T06:15:01.474Z,70.60
2019-03-04T06:16:02.612Z,70.40
2019-03-04T06:17:03.747Z,70.40
2019-03-04T06:18:04.895Z,70.70
2019-03-04T06:19:06.035Z,69.70
2019-03-04T06:20:09.978Z,69.90
2019-03-04T06:21:11.121Z,69.60
2019-03-04T06:22:12.278Z,69.70
2019-03-04T06:23:13.527Z,69.90
2019-03-04T06:24:14.766Z,69.90
2019-03-04T06:25:18.264Z,69.60
2019-03-04T06:26:19.450Z,69.60
2019-03-04T06:27:20.596Z,69.70
2019-03-04T06:28:21.746Z,69.50
2019-03-04T06:29:22.885Z,69.30
2019-03-04T06:30:28.674Z,69.30
2019-03-04T06:31:29.858Z,69.10
2019-03-04T06:32:30.987Z,69.10
2019-03-04T06:33:32.134Z,69.00
2019-03-04T06:34:33.269Z,68.20
2019-03-04T06:35:34.418Z,68.60
2019-03-04T06:36:35.553Z,68.50
2019-03-04T06:37:37.015Z,67.80
2019-03-04T06:38:38.480Z,67.70
2019-03-04T06:39:39.919Z,67.70
2019-03-04T06:40:41.062Z,67.50
2019-03-04T06:41:42.469Z,67.40
2019-03-04T06:42:43.607Z,67.30
2019-03-04T06:43:44.757Z,67.00
2019-03-04T06:44:45.898Z,67.00
2019-03-04T06:45:47.034Z,67.20
2019-03-04T06:46:48.259Z,67.70
2019-03-04T06:47:49.798Z,66.80
2019-03-04T06:48:50.954Z,66.90
2019-03-04T06:49:52.088Z,66.70
2019-03-04T06:50:54.628Z,66.60
2019-03-04T06:51:55.769Z,67.10
2019-03-04T06:52:58.826Z,67.30
2019-03-04T06:54:12.473Z,67.20
2019-03-04T06:55:20.393Z,67.50
2019-03-04T06:56:31.161Z,67.40
2019-03-04T06:57:32.298Z,67.70
2019-03-04T06:58:57.946Z,67.70
2019-03-04T07:00:08.507Z,67.80
2019-03-04T07:01:12.249Z,67.70
2019-03-04T07:02:22.873Z,68.30
2019-03-04T07:03:24.026Z,68.00
2019-03-04T07:04:31.593Z,67.70
2019-03-04T07:05:44.846Z,67.80
2019-03-04T07:06:45.993Z,68.20
2019-03-04T07:07:47.409Z,68.00
2019-03-04T07:08:52.378Z,68.10
2019-03-04T07:09:53.507Z,67.70
2019-03-04T07:10:54.646Z,68.00
2019-03-04T07:11:56.094Z,68.70
2019-03-04T07:12:57.401Z,68.40
2019-03-04T07:13:58.552Z,68.80
2019-03-04T07:14:59.998Z,68.30
2019-03-04T07:16:01.141Z,68.30
2019-03-04T07:17:02.278Z,68.10
2019-03-04T07:18:03.413Z,68.60
2019-03-04T07:19:04.563Z,68.60
2019-03-04T07:20:19.229Z,68.70
2019-03-04T07:21:20.389Z,68.20
2019-03-04T07:22:21.549Z,67.70
2019-03-04T07:23:22.695Z,67.70
2019-03-04T07:24:23.941Z,68.20
2019-03-04T07:25:25.078Z,68.50
2019-03-04T07:26:26.218Z,70.00
2019-03-04T07:27:27.622Z,73.00
2019-03-04T07:28:28.755Z,74.90
2019-03-04T07:29:29.915Z,78.10
2019-03-04T07:30:30.934Z,86.30
2019-03-04T07:31:31.990Z,92.10
2019-03-04T07:32:33.103Z,95.40
2019-03-04T07:33:34.257Z,96.00
2019-03-04T07:34:35.806Z,97.10
2019-03-04T07:35:37.086Z,98.40
2019-03-04T07:36:38.226Z,98.60
2019-03-04T07:37:39.366Z,99.00
2019-03-04T07:38:44.074Z,98.50
2019-03-04T07:39:45.223Z,99.80
2019-03-04T07:40:46.363Z,99.60
2019-03-04T07:41:47.498Z,99.70
2019-03-04T07:42:48.962Z,99.20
2019-03-04T07:43:50.175Z,99.50
2019-03-04T07:44:51.313Z,99.50
2019-03-04T07:45:52.458Z,99.50
2019-03-04T07:46:53.699Z,99.40
2019-03-04T07:47:54.834Z,98.90
2019-03-04T07:48:56.000Z,99.40
2019-03-04T07:49:57.141Z,99.40
2019-03-04T07:51:08.168Z,99.10
2019-03-04T07:52:09.309Z,99.40
2019-03-04T07:53:10.790Z,99.50
2019-03-04T07:54:12.841Z,98.70
2019-03-04T07:55:14.077Z,99.00
2019-03-04T07:56:15.209Z,98.60
2019-03-04T07:57:16.347Z,99.40
2019-03-04T07:58:17.793Z,98.70
2019-03-04T07:59:18.963Z,98.40
2019-03-04T08:00:20.102Z,97.90
2019-03-04T08:01:21.232Z,98.00
2019-03-04T08:02:22.730Z,98.70
2019-03-04T08:03:23.872Z,99.20
2019-03-04T08:04:25.029Z,99.60
2019-03-04T08:05:26.362Z,98.00
2019-03-04T08:06:27.502Z,98.50
2019-03-04T08:07:32.536Z,98.30
2019-03-04T08:08:34.865Z,97.70
2019-03-04T08:09:58.013Z,97.30
2019-03-04T08:11:20.005Z,97.00
2019-03-04T08:12:37.025Z,97.30
2019-03-04T08:13:53.817Z,97.90
2019-03-04T08:14:54.974Z,98.70
2019-03-04T08:15:56.529Z,99.10
2019-03-04T08:16:57.670Z,98.30
2019-03-04T08:17:58.804Z,98.70
2019-03-04T08:19:00.325Z,98.40
2019-03-04T08:20:01.478Z,98.90
2019-03-04T08:21:02.817Z,98.40
2019-03-04T08:22:03.959Z,98.70
2019-03-04T08:23:05.097Z,96.90
2019-03-04T08:24:06.238Z,96.60
2019-03-04T08:25:08.999Z,96.00
2019-03-04T08:26:10.142Z,95.60
2019-03-04T08:27:11.626Z,95.10
2019-03-04T08:28:12.871Z,95.20
2019-03-04T08:29:14.306Z,96.00
2019-03-04T08:30:17.057Z,94.50
2019-03-04T08:31:18.301Z,93.50
2019-03-04T08:32:19.750Z,94.30
2019-03-04T08:33:20.886Z,93.90
2019-03-04T08:34:30.743Z,94.00
2019-03-04T08:35:25.410Z,94.40
2019-03-04T08:36:26.547Z,93.50
2019-03-04T08:37:27.686Z,93.90
2019-03-04T08:38:28.846Z,92.00
2019-03-04T08:39:30.346Z,93.10
2019-03-04T08:40:31.506Z,92.10
2019-03-04T08:41:33.021Z,92.30
2019-03-04T08:42:34.162Z,93.00
2019-03-04T08:43:35.595Z,91.90
2019-03-04T08:44:36.742Z,92.30
2019-03-04T08:45:37.894Z,91.10
2019-03-04T08:46:39.048Z,90.20
2019-03-04T08:47:40.302Z,91.00
2019-03-04T08:48:41.441Z,90.40
2019-03-04T08:49:42.918Z,90.00
2019-03-04T08:50:46.075Z,90.10
2019-03-04T08:51:47.312Z,89.40
2019-03-04T08:52:48.456Z,89.20
2019-03-04T08:53:49.605Z,88.60
2019-03-04T08:54:50.754Z,89.40
2019-03-04T08:55:51.906Z,90.00
2019-03-04T08:56:53.049Z,90.30
2019-03-04T08:57:54.194Z,88.30
2019-03-04T08:58:55.337Z,87.80
2019-03-04T08:59:56.481Z,88.20
2019-03-04T09:00:57.738Z,88.60
2019-03-04T09:01:58.916Z,90.60
2019-03-04T09:03:00.179Z,90.10
2019-03-04T09:04:01.324Z,87.60
2019-03-04T09:05:05.990Z,86.60
2019-03-04T09:06:07.253Z,87.20
2019-03-04T09:07:09.017Z,87.10
2019-03-04T09:08:10.282Z,88.10
2019-03-04T09:09:11.426Z,88.80
2019-03-04T09:10:18.070Z,88.80
2019-03-04T09:11:19.102Z,87.40
2019-03-04T09:12:20.236Z,84.20
2019-03-04T09:13:22.242Z,83.30
2019-03-04T09:14:23.315Z,82.80
2019-03-04T09:15:24.397Z,82.60
2019-03-04T09:16:25.881Z,84.70
2019-03-04T09:17:27.026Z,85.50
2019-03-04T09:18:28.157Z,85.30
2019-03-04T09:19:29.295Z,84.50
2019-03-04T09:20:30.445Z,84.90
2019-03-04T09:21:31.581Z,83.60
2019-03-04T09:22:32.742Z,82.90
2019-03-04T09:23:33.884Z,86.30
2019-03-04T09:24:35.034Z,84.00
2019-03-04T09:25:45.327Z,85.70
2019-03-04T09:26:46.465Z,83.50
2019-03-04T09:27:49.809Z,81.30
2019-03-04T09:28:50.949Z,82.10
2019-03-04T09:29:52.095Z,83.30
2019-03-04T09:30:53.536Z,83.50
2019-03-04T09:31:54.697Z,84.10
2019-03-04T09:32:55.717Z,83.20
2019-03-04T09:33:56.867Z,82.50
2019-03-04T09:36:04.180Z,83.90
2019-03-04T09:37:05.255Z,81.10
2019-03-04T09:38:06.317Z,82.50
2019-03-04T09:39:08.039Z,82.00
2019-03-04T09:40:10.962Z,84.60
2019-03-04T09:41:12.417Z,82.80
2019-03-04T09:42:15.362Z,83.90
2019-03-04T09:43:16.591Z,83.40
2019-03-04T09:44:17.731Z,83.90
2019-03-04T09:45:18.969Z,81.90
2019-03-04T09:46:20.117Z,82.80
2019-03-04T09:47:21.258Z,80.90
2019-03-04T09:48:22.393Z,83.80
2019-03-04T09:49:24.354Z,83.50
2019-03-04T09:50:26.702Z,80.40
2019-03-04T09:51:28.159Z,81.00
2019-03-04T09:52:29.307Z,79.60
2019-03-04T09:53:39.150Z,81.30
2019-03-04T09:54:33.502Z,81.00
2019-03-04T09:55:34.841Z,80.00
2019-03-04T09:56:36.174Z,79.80
2019-03-04T09:57:37.190Z,80.20
2019-03-04T09:58:38.254Z,79.20
2019-03-04T09:59:39.341Z,79.70
2019-03-04T10:00:59.169Z,77.30
2019-03-04T10:02:00.349Z,75.40
2019-03-04T10:03:22.181Z,75.90
2019-03-04T10:04:25.521Z,76.80
2019-03-04T10:05:28.591Z,76.50
2019-03-04T10:06:31.625Z,74.00
2019-03-04T10:07:36.594Z,73.40
2019-03-04T10:08:42.389Z,72.30
2019-03-04T10:09:45.325Z,70.30
2019-03-04T10:10:50.268Z,70.00
2019-03-04T10:11:58.023Z,68.50
2019-03-04T10:13:06.955Z,68.30
2019-03-04T10:14:31.598Z,70.20
2019-03-04T10:15:46.238Z,70.60
2019-03-04T10:16:51.187Z,68.80
2019-03-04T10:18:07.711Z,69.10
2019-03-04T10:19:30.955Z,69.30
2019-03-04T10:20:59.373Z,69.50
2019-03-04T10:22:13.320Z,70.70
2019-03-04T10:23:26.873Z,71.50
2019-03-04T10:24:40.674Z,71.40
2019-03-04T10:25:48.862Z,70.80
2019-03-04T10:26:57.308Z,70.50
2019-03-04T10:28:18.744Z,71.60
2019-03-04T10:29:35.706Z,71.10
2019-03-04T10:30:58.884Z,71.00
2019-03-04T10:32:07.603Z,69.20
2019-03-04T10:33:33.393Z,69.10
2019-03-04T10:37:08.314Z,69.50
2019-03-04T10:38:27.243Z,70.70
2019-03-04T10:39:35.578Z,68.50
2019-03-04T10:40:52.585Z,68.40
2019-03-04T10:42:06.173Z,67.80
2019-03-04T10:43:22.695Z,67.60
2019-03-04T10:44:59.294Z,65.90
2019-03-04T10:46:10.005Z,67.10
2019-03-04T10:47:11.405Z,65.50
2019-03-04T10:48:12.558Z,65.10
2019-03-04T10:49:13.694Z,66.00
2019-03-04T10:50:14.842Z,65.40
2019-03-04T10:51:15.985Z,65.30
2019-03-04T10:52:17.132Z,64.80
2019-03-04T10:53:18.275Z,65.00
2019-03-04T10:54:19.429Z,66.40
2019-03-04T10:55:20.903Z,65.70
2019-03-04T10:56:22.046Z,67.10
2019-03-04T10:57:23.193Z,68.40
2019-03-04T10:58:24.441Z,69.00
2019-03-04T10:59:25.593Z,71.20
2019-03-04T11:00:26.921Z,74.60
2019-03-04T11:01:30.603Z,78.50
2019-03-04T11:02:31.500Z,81.60
2019-03-04T11:03:32.633Z,83.30
2019-03-04T11:04:33.773Z,86.50
2019-03-04T11:05:34.920Z,90.50
2019-03-04T11:06:36.069Z,91.10
2019-03-04T11:07:37.214Z,91.30
2019-03-04T11:08:38.369Z,91.90
2019-03-04T11:09:39.509Z,92.70
2019-03-04T11:10:40.664Z,93.00
2019-03-04T11:11:42.422Z,93.40
2019-03-04T11:12:43.577Z,92.80
2019-03-04T11:13:44.722Z,92.50
2019-03-04T11:14:45.862Z,92.10
2019-03-04T11:15:47.253Z,91.40
2019-03-04T11:16:48.391Z,91.00
2019-03-04T11:17:49.918Z,91.20
2019-03-04T11:18:51.065Z,90.70
2019-03-04T11:19:52.205Z,90.40
2019-03-04T11:20:53.345Z,90.80
2019-03-04T11:21:54.862Z,91.00
2019-03-04T11:22:56.018Z,91.20
2019-03-04T11:23:57.430Z,90.30
2019-03-04T11:24:58.570Z,90.60
2019-03-04T11:26:00.030Z,91.20
2019-03-04T11:27:01.252Z,90.00
2019-03-04T11:28:02.511Z,89.50
2019-03-04T11:29:05.569Z,89.00
2019-03-04T11:30:10.413Z,87.00
2019-03-04T11:31:11.550Z,86.30
2019-03-04T11:32:12.700Z,87.60
2019-03-04T11:33:13.850Z,88.00
2019-03-04T11:34:14.998Z,88.50
2019-03-04T11:35:16.152Z,86.50
2019-03-04T11:36:17.319Z,85.50
2019-03-04T11:37:18.821Z,84.90
2019-03-04T11:38:30.931Z,83.90
2019-03-04T11:39:34.057Z,84.90
2019-03-04T11:40:39.157Z,82.20
2019-03-04T11:41:40.314Z,82.50
2019-03-04T11:42:41.800Z,82.30
2019-03-04T11:43:42.933Z,81.90
2019-03-04T11:44:44.066Z,82.00
2019-03-04T11:45:45.207Z,81.70
2019-03-04T11:46:46.450Z,82.10
2019-03-04T11:47:47.601Z,82.00
2019-03-04T11:48:48.738Z,82.40
2019-03-04T11:49:49.898Z,82.30
2019-03-04T11:50:51.035Z,81.70
2019-03-04T11:51:52.177Z,80.70
2019-03-04T11:52:53.339Z,82.10
2019-03-04T11:53:55.281Z,81.60
2019-03-04T11:54:56.453Z,82.60
2019-03-04T11:55:58.103Z,83.00
2019-03-04T11:56:59.334Z,82.10
2019-03-04T11:58:00.485Z,82.80
2019-03-04T11:59:01.630Z,83.80
2019-03-04T12:00:12.773Z,84.10
2019-03-04T12:01:15.813Z,84.10
2019-03-04T12:02:17.958Z,85.30
2019-03-04T12:03:19.131Z,85.40
2019-03-04T12:04:20.275Z,86.40
2019-03-04T12:05:21.413Z,88.70
2019-03-04T12:06:22.559Z,90.80
2019-03-04T12:07:24.036Z,93.50
2019-03-04T12:08:25.182Z,94.70
2019-03-04T12:09:26.604Z,96.00
2019-03-04T12:10:27.748Z,97.60
2019-03-04T12:11:38.032Z,98.40
2019-03-04T12:12:31.930Z,99.20
2019-03-04T12:13:33.090Z,99.00
2019-03-04T12:14:34.230Z,99.60
2019-03-04T12:15:36.066Z,99.70
2019-03-04T12:16:37.522Z,99.90
2019-03-04T12:17:39.050Z,99.90
2019-03-04T12:18:40.224Z,99.90
2019-03-04T12:19:41.369Z,99.90
2019-03-04T12:20:42.937Z,99.90
2019-03-04T12:21:44.420Z,99.90
2019-03-04T12:22:45.551Z,99.90
2019-03-04T12:23:46.697Z,99.90
2019-03-04T12:24:47.840Z,99.90
2019-03-04T12:25:49.086Z,99.90
2019-03-04T12:26:50.217Z,99.90
2019-03-04T12:27:51.354Z,99.90
2019-03-04T12:28:52.505Z,99.90
2019-03-04T12:29:53.647Z,99.90
2019-03-04T12:30:54.786Z,99.90
2019-03-04T12:32:00.603Z,99.90
2019-03-04T12:33:01.734Z,99.90
2019-03-04T12:34:03.314Z,99.90
2019-03-04T12:35:07.537Z,99.90
2019-03-04T12:36:08.738Z,99.90
2019-03-04T12:37:10.202Z,99.90
2019-03-04T12:38:11.361Z,99.90
2019-03-04T12:39:12.533Z,99.90
2019-03-04T12:40:15.665Z,99.90
2019-03-04T12:41:16.789Z,99.90
2019-03-04T12:42:17.927Z,99.90
2019-03-04T12:43:19.092Z,99.90
2019-03-04T12:44:20.330Z,99.90
2019-03-04T12:45:22.463Z,99.90
2019-03-04T12:46:23.694Z,99.90
2019-03-04T12:47:24.834Z,99.90
2019-03-04T12:48:26.266Z,99.90
2019-03-04T12:49:27.401Z,99.90
2019-03-04T12:50:33.264Z,99.90
2019-03-04T12:51:34.655Z,99.90
2019-03-04T12:52:35.802Z,99.90
2019-03-04T12:53:37.649Z,99.90
2019-03-04T12:54:38.896Z,99.90
2019-03-04T12:55:40.039Z,99.90
2019-03-04T12:56:41.179Z,99.90
2019-03-04T12:57:42.321Z,99.90
2019-03-04T12:58:43.825Z,99.90
2019-03-04T12:59:44.964Z,99.90
2019-03-04T13:00:46.113Z,99.90
2019-03-04T13:01:47.550Z,99.90
2019-03-04T13:02:57.119Z,99.90
2019-03-04T13:03:51.948Z,99.90
2019-03-04T13:04:53.087Z,99.80
2019-03-04T13:05:54.105Z,99.40
2019-03-04T13:06:55.121Z,99.80
2019-03-04T13:07:56.140Z,99.20
2019-03-04T13:08:57.508Z,98.30
2019-03-04T13:09:58.537Z,97.80
2019-03-04T13:10:59.725Z,97.90
2019-03-04T13:12:01.226Z,97.50
2019-03-04T13:13:02.353Z,97.00
2019-03-04T13:14:03.807Z,97.70
2019-03-04T13:15:11.788Z,97.60
2019-03-04T13:16:12.942Z,97.60
2019-03-04T13:17:14.082Z,97.50
2019-03-04T13:18:15.237Z,97.30
2019-03-04T13:19:17.364Z,97.30
2019-03-04T13:20:26.497Z,97.80
2019-03-04T13:21:27.641Z,97.70
2019-03-04T13:22:28.785Z,97.20
2019-03-04T13:23:29.929Z,96.70
2019-03-04T13:24:31.082Z,96.80
2019-03-04T13:25:32.230Z,97.00
2019-03-04T13:26:33.383Z,97.50